Time,TemperatureF,DewpointF,PressureIn,WindDirection,WindDirectionDegrees,WindSpeedMPH,WindSpeedGustMPH,Humidity,HourlyPrecipIn,Conditions,Clouds,dailyrainin,SoftwareType,DateUTC
2013-02-09 00:01:00,27.0,27.0,-100.00,WNW,300,4.0,4.0,99,-99.99,,,-99.99,,2013-02-09 06:01:00,
2013-02-09 00:32:00,27.0,27.0,-100.00,West,260,1.0,1.0,99,-99.99,,,-99.99,,2013-02-09 06:32:00,
2013-02-09 00:42:00,27.0,27.0,-100.00,West,260,1.0,1.0,99,-99.99,,,-99.99,,2013-02-09 06:42:00,
2013-02-09 00:52:00,27.0,27.0,-100.00,West,260,1.0,1.0,99,-99.99,,,-99.99,,2013-02-09 06:52:00,
2013-02-09 01:01:00,27.0,27.0,-100.00,West,260,1.0,1.0,99,-99.99,,,-99.99,,2013-02-09 07:01:00,
2013-02-09 01:32:00,26.0,26.0,-100.00,ENE,70,1.0,1.0,99,-99.99,,,-99.99,,2013-02-09 07:32:00,
2013-02-09 01:42:00,26.0,26.0,-100.00,ENE,70,1.0,1.0,99,-99.99,,,-99.99,,2013-02-09 07:42:00,
2013-02-09 01:52:00,26.0,26.0,-100.00,ENE,70,1.0,1.0,99,-99.99,,,-99.99,,2013-02-09 07:52:00,
2013-02-09 02:01:00,26.0,26.0,-100.00,ENE,70,1.0,1.0,99,-99.99,,,-99.99,,2013-02-09 08:01:00,
2013-02-09 02:02:00,25.0,25.0,-100.00,North,0,3.0,5.0,99,-99.99,,,-99.99,,2013-02-09 08:02:00,
2013-02-09 02:32:00,25.0,25.0,-100.00,North,0,3.0,5.0,99,-99.99,,,-99.99,,2013-02-09 08:32:00,
2013-02-09 02:42:00,25.0,25.0,-100.00,North,0,3.0,5.0,99,-99.99,,,-99.99,,2013-02-09 08:42:00,
2013-02-09 02:52:00,25.0,25.0,-100.00,North,0,3.0,5.0,99,-99.99,,,-99.99,,2013-02-09 08:52:00,
2013-02-09 03:32:00,25.0,25.0,-100.00,NNW,345,6.0,6.0,99,-99.99,,,-99.99,,2013-02-09 09:32:00,
2013-02-09 03:42:00,25.0,25.0,-100.00,NNW,345,6.0,6.0,99,-99.99,,,-99.99,,2013-02-09 09:42:00,
2013-02-09 03:52:00,25.0,25.0,-100.00,NNW,345,6.0,6.0,99,-99.99,,,-99.99,,2013-02-09 09:52:00,
2013-02-09 04:01:00,25.0,25.0,-100.00,NNW,345,6.0,6.0,99,-99.99,,,-99.99,,2013-02-09 10:01:00,
2013-02-09 04:32:00,25.0,25.0,-100.00,NW,305,2.0,2.0,99,-99.99,,,-99.99,,2013-02-09 10:32:00,
2013-02-09 04:42:00,25.0,25.0,-100.00,NW,305,2.0,2.0,99,-99.99,,,-99.99,,2013-02-09 10:42:00,
2013-02-09 04:52:00,25.0,25.0,-100.00,NW,305,2.0,2.0,99,-99.99,,,-99.99,,2013-02-09 10:52:00,
2013-02-09 05:01:00,25.0,25.0,-100.00,NW,305,2.0,2.0,99,-99.99,,,-99.99,,2013-02-09 11:01:00,
2013-02-09 05:02:00,25.0,25.0,-100.00,North,0,4.0,6.0,99,-99.99,,,-99.99,,2013-02-09 11:02:00,
2013-02-09 05:32:00,25.0,25.0,-100.00,North,0,4.0,6.0,99,-99.99,,,-99.99,,2013-02-09 11:32:00,
2013-02-09 05:42:00,25.0,25.0,-100.00,North,0,4.0,6.0,99,-99.99,,,-99.99,,2013-02-09 11:42:00,
2013-02-09 05:52:00,25.0,25.0,-100.00,North,0,4.0,6.0,99,-99.99,,,-99.99,,2013-02-09 11:52:00,
2013-02-09 06:02:00,25.0,25.0,-100.00,NE,40,1.0,2.0,99,-99.99,,,-99.99,,2013-02-09 12:02:00,
2013-02-09 06:32:00,25.0,25.0,-100.00,NE,40,1.0,2.0,99,-99.99,,,-99.99,,2013-02-09 12:32:00,
2013-02-09 06:42:00,25.0,25.0,-100.00,NE,40,1.0,2.0,99,-99.99,,,-99.99,,2013-02-09 12:42:00,
2013-02-09 06:52:00,25.0,25.0,-100.00,NE,40,1.0,2.0,99,-99.99,,,-99.99,,2013-02-09 12:52:00,
2013-02-09 07:32:00,25.0,24.0,-100.00,North,10,3.0,5.0,99,-99.99,,,-99.99,,2013-02-09 13:32:00,
2013-02-09 07:42:00,25.0,24.0,-100.00,North,10,3.0,5.0,99,-99.99,,,-99.99,,2013-02-09 13:42:00,
2013-02-09 07:52:00,25.0,24.0,-100.00,North,10,3.0,5.0,99,-99.99,,,-99.99,,2013-02-09 13:52:00,
2013-02-09 08:01:00,25.0,24.0,-100.00,North,10,3.0,5.0,99,-99.99,,,-99.99,,2013-02-09 14:01:00,
2013-02-09 08:02:00,25.0,25.0,-100.00,NW,320,3.0,4.0,100,-99.99,,,-99.99,,2013-02-09 14:02:00,
2013-02-09 08:32:00,25.0,25.0,-100.00,NW,320,3.0,4.0,100,-99.99,,,-99.99,,2013-02-09 14:32:00,
2013-02-09 08:42:00,25.0,25.0,-100.00,NW,320,3.0,4.0,100,-99.99,,,-99.99,,2013-02-09 14:42:00,
2013-02-09 08:52:00,25.0,25.0,-100.00,NW,320,3.0,4.0,100,-99.99,,,-99.99,,2013-02-09 14:52:00,
2013-02-09 09:32:00,25.0,25.0,-100.00,NNW,335,2.0,2.0,99,-99.99,,,-99.99,,2013-02-09 15:32:00,
2013-02-09 09:42:00,25.0,25.0,-100.00,NNW,335,2.0,2.0,99,-99.99,,,-99.99,,2013-02-09 15:42:00,
2013-02-09 09:52:00,25.0,25.0,-100.00,NNW,335,2.0,2.0,99,-99.99,,,-99.99,,2013-02-09 15:52:00,
2013-02-09 10:01:00,25.0,25.0,-100.00,NNW,335,2.0,2.0,99,-99.99,,,-99.99,,2013-02-09 16:01:00,
2013-02-09 10:32:00,25.0,25.0,-100.00,NW,315,4.0,5.0,99,-99.99,,,-99.99,,2013-02-09 16:32:00,
2013-02-09 10:42:00,25.0,25.0,-100.00,NW,315,4.0,5.0,99,-99.99,,,-99.99,,2013-02-09 16:42:00,
2013-02-09 10:52:00,25.0,25.0,-100.00,NW,315,4.0,5.0,99,-99.99,,,-99.99,,2013-02-09 16:52:00,
2013-02-09 11:01:00,25.0,25.0,-100.00,NW,315,4.0,5.0,99,-99.99,,,-99.99,,2013-02-09 17:01:00,
2013-02-09 11:02:00,26.0,26.0,-100.00,NW,310,2.0,2.0,99,-99.99,,,-99.99,,2013-02-09 17:02:00,
2013-02-09 11:32:00,26.0,26.0,-100.00,NW,310,2.0,2.0,99,-99.99,,,-99.99,,2013-02-09 17:32:00,
2013-02-09 11:42:00,26.0,26.0,-100.00,NW,310,2.0,2.0,99,-99.99,,,-99.99,,2013-02-09 17:42:00,
2013-02-09 11:52:00,26.0,26.0,-100.00,NW,310,2.0,2.0,99,-99.99,,,-99.99,,2013-02-09 17:52:00,
2013-02-09 12:32:00,27.0,27.0,-100.00,NNW,335,1.0,2.0,99,-99.99,,,-99.99,,2013-02-09 18:32:00,
2013-02-09 12:42:00,27.0,27.0,-100.00,NNW,335,1.0,2.0,99,-99.99,,,-99.99,,2013-02-09 18:42:00,
2013-02-09 12:52:00,27.0,27.0,-100.00,NNW,335,1.0,2.0,99,-99.99,,,-99.99,,2013-02-09 18:52:00,
2013-02-09 13:01:00,27.0,27.0,-100.00,NNW,335,1.0,2.0,99,-99.99,,,-99.99,,2013-02-09 19:01:00,
2013-02-09 13:32:00,29.0,29.0,-100.00,SSW,210,2.0,2.0,99,-99.99,,,-99.99,,2013-02-09 19:32:00,
2013-02-09 13:42:00,29.0,29.0,-100.00,SSW,210,2.0,2.0,99,-99.99,,,-99.99,,2013-02-09 19:42:00,
2013-02-09 13:52:00,29.0,29.0,-100.00,SSW,210,2.0,2.0,99,-99.99,,,-99.99,,2013-02-09 19:52:00,
2013-02-09 14:01:00,29.0,29.0,-100.00,SSW,210,2.0,2.0,99,-99.99,,,-99.99,,2013-02-09 20:01:00,
2013-02-09 14:02:00,29.0,28.0,-100.00,ESE,110,2.0,3.0,99,-99.99,,,-99.99,,2013-02-09 20:02:00,
2013-02-09 14:32:00,29.0,28.0,-100.00,ESE,110,2.0,3.0,99,-99.99,,,-99.99,,2013-02-09 20:32:00,
2013-02-09 14:42:00,29.0,28.0,-100.00,ESE,110,2.0,3.0,99,-99.99,,,-99.99,,2013-02-09 20:42:00,
2013-02-09 14:52:00,29.0,28.0,-100.00,ESE,110,2.0,3.0,99,-99.99,,,-99.99,,2013-02-09 20:52:00,
2013-02-09 15:32:00,29.0,29.0,-100.00,SE,135,4.0,5.0,99,-99.99,,,-99.99,,2013-02-09 21:32:00,
2013-02-09 15:42:00,29.0,29.0,-100.00,SE,135,4.0,5.0,99,-99.99,,,-99.99,,2013-02-09 21:42:00,
2013-02-09 15:52:00,29.0,29.0,-100.00,SE,135,4.0,5.0,99,-99.99,,,-99.99,,2013-02-09 21:52:00,
2013-02-09 16:01:00,29.0,29.0,-100.00,SE,135,4.0,5.0,99,-99.99,,,-99.99,,2013-02-09 22:01:00,
2013-02-09 16:32:00,31.0,29.0,-100.00,West,260,2.0,2.0,94,-99.99,,,-99.99,,2013-02-09 22:32:00,
2013-02-09 16:42:00,31.0,29.0,-100.00,West,260,2.0,2.0,94,-99.99,,,-99.99,,2013-02-09 22:42:00,
2013-02-09 16:52:00,31.0,29.0,-100.00,West,260,2.0,2.0,94,-99.99,,,-99.99,,2013-02-09 22:52:00,
2013-02-09 17:01:00,31.0,29.0,-100.00,West,260,2.0,2.0,94,-99.99,,,-99.99,,2013-02-09 23:01:00,
2013-02-09 17:02:00,29.0,27.0,-100.00,North,0,2.0,4.0,93,-99.99,,,-99.99,,2013-02-09 23:02:00,
2013-02-09 17:32:00,29.0,27.0,-100.00,North,0,2.0,4.0,93,-99.99,,,-99.99,,2013-02-09 23:32:00,
2013-02-09 17:42:00,29.0,27.0,-100.00,North,0,2.0,4.0,93,-99.99,,,-99.99,,2013-02-09 23:42:00,
2013-02-09 17:52:00,29.0,27.0,-100.00,North,0,2.0,4.0,93,-99.99,,,-99.99,,2013-02-09 23:52:00,
2013-02-09 18:32:00,26.0,25.0,-100.00,NNE,25,4.0,4.0,97,-99.99,,,-99.99,,2013-02-10 00:32:00,
2013-02-09 18:42:00,26.0,25.0,-100.00,NNE,25,4.0,4.0,97,-99.99,,,-99.99,,2013-02-10 00:42:00,
2013-02-09 18:52:00,26.0,25.0,-100.00,NNE,25,4.0,4.0,97,-99.99,,,-99.99,,2013-02-10 00:52:00,
2013-02-09 19:01:00,26.0,25.0,-100.00,NNE,25,4.0,4.0,97,-99.99,,,-99.99,,2013-02-10 01:01:00,
2013-02-09 19:32:00,25.0,24.0,-100.00,East,80,3.0,3.0,99,-99.99,,,-99.99,,2013-02-10 01:32:00,
2013-02-09 19:42:00,25.0,24.0,-100.00,East,80,3.0,3.0,99,-99.99,,,-99.99,,2013-02-10 01:42:00,
2013-02-09 19:52:00,25.0,24.0,-100.00,East,80,3.0,3.0,99,-99.99,,,-99.99,,2013-02-10 01:52:00,
2013-02-09 20:01:00,25.0,24.0,-100.00,East,80,3.0,3.0,99,-99.99,,,-99.99,,2013-02-10 02:01:00,
2013-02-09 20:32:00,24.0,23.0,-100.00,East,90,5.0,6.0,99,-99.99,,,-99.99,,2013-02-10 02:32:00,
2013-02-09 20:42:00,24.0,23.0,-100.00,East,90,5.0,6.0,99,-99.99,,,-99.99,,2013-02-10 02:42:00,
2013-02-09 20:52:00,24.0,23.0,-100.00,East,90,5.0,6.0,99,-99.99,,,-99.99,,2013-02-10 02:52:00,
2013-02-09 21:01:00,24.0,23.0,-100.00,East,90,5.0,6.0,99,-99.99,,,-99.99,,2013-02-10 03:01:00,
2013-02-09 21:32:00,23.0,23.0,-100.00,East,90,7.0,8.0,99,-99.99,,,-99.99,,2013-02-10 03:32:00,
2013-02-09 21:42:00,23.0,23.0,-100.00,East,90,7.0,8.0,99,-99.99,,,-99.99,,2013-02-10 03:42:00,
2013-02-09 21:52:00,23.0,23.0,-100.00,East,90,7.0,8.0,99,-99.99,,,-99.99,,2013-02-10 03:52:00,
2013-02-09 22:01:00,23.0,23.0,-100.00,East,90,7.0,8.0,99,-99.99,,,-99.99,,2013-02-10 04:01:00,
2013-02-09 22:32:00,23.0,22.0,-100.00,East,100,4.0,4.0,99,-99.99,,,-99.99,,2013-02-10 04:32:00,
2013-02-09 22:42:00,23.0,22.0,-100.00,East,100,4.0,4.0,99,-99.99,,,-99.99,,2013-02-10 04:42:00,
2013-02-09 22:52:00,23.0,22.0,-100.00,East,100,4.0,4.0,99,-99.99,,,-99.99,,2013-02-10 04:52:00,
2013-02-09 23:01:00,23.0,22.0,-100.00,East,100,4.0,4.0,99,-99.99,,,-99.99,,2013-02-10 05:01:00,
2013-02-09 23:32:00,22.0,22.0,-100.00,East,85,4.0,4.0,99,-99.99,,,-99.99,,2013-02-10 05:32:00,
2013-02-09 23:42:00,22.0,22.0,-100.00,East,85,4.0,4.0,99,-99.99,,,-99.99,,2013-02-10 05:42:00,
2013-02-09 23:52:00,22.0,22.0,-100.00,East,85,4.0,4.0,99,-99.99,,,-99.99,,2013-02-10 05:52:00,